Time;durP1;ratioP1;P1;durP2;ratioP2;P2;SDS_P1;SDS_P2;PMS_P1;PMS_P2;Temp;Humidity;BMP_temperature;BMP_pressure;BME280_temperature;BME280_humidity;BME280_pressure;Samples;Min_cycle;Max_cycle;Signal;HPM_P1;HPM_P2
2022/12/11 00:01:30;;;;;;;15.63;10.00;;;-1.00;99.90;;;;;;5008884;28;21087;-60
2022/12/11 00:03:55;;;;;;;16.90;9.90;;;-1.10;99.90;;;;;;5018057;28;20204;-59
2022/12/11 00:06:22;;;;;;;16.57;10.97;;;-1.10;99.90;;;;;;5018708;28;20246;-59
2022/12/11 00:08:51;;;;;;;16.83;11.17;;;-1.20;99.90;;;;;;5023081;28;20204;-60
2022/12/11 00:11:16;;;;;;;19.83;11.20;;;-1.20;99.90;;;;;;4996744;28;20269;-61
2022/12/11 00:13:42;;;;;;;20.80;11.37;;;-1.20;99.90;;;;;;5020627;28;20401;-61
2022/12/11 00:16:08;;;;;;;15.37;11.50;;;-1.10;99.90;;;;;;5020662;28;20211;-60
2022/12/11 00:18:34;;;;;;;17.97;11.47;;;-1.20;99.90;;;;;;5010537;28;20208;-56
2022/12/11 00:21:00;;;;;;;17.43;11.50;;;-1.20;99.90;;;;;;5008111;28;20206;-56
2022/12/11 00:23:26;;;;;;;16.47;11.57;;;-1.10;99.90;;;;;;5008236;28;20264;-56
2022/12/11 00:25:52;;;;;;;16.23;10.90;;;-1.10;99.90;;;;;;5005794;28;20208;-56
2022/12/11 00:28:17;;;;;;;14.93;11.50;;;-1.20;99.90;;;;;;5007771;28;20282;-56
2022/12/11 00:30:44;;;;;;;22.33;12.50;;;-1.20;99.90;;;;;;5007499;28;20591;-56
2022/12/11 00:33:10;;;;;;;18.77;12.90;;;-1.20;99.90;;;;;;5003854;28;20223;-57
2022/12/11 00:35:40;;;;;;;19.10;12.53;;;-1.20;99.90;;;;;;5007669;28;20260;-57
2022/12/11 00:38:06;;;;;;;18.10;12.97;;;-1.20;99.90;;;;;;5007697;28;20314;-56
2022/12/11 00:40:35;;;;;;;19.13;13.07;;;-1.20;99.90;;;;;;5007710;28;20628;-57
2022/12/11 00:43:02;;;;;;;21.23;13.20;;;-1.20;99.90;;;;;;5007980;28;20203;-56
2022/12/11 00:45:27;;;;;;;19.77;12.27;;;-1.20;99.90;;;;;;5007489;28;20217;-56
2022/12/11 00:47:53;;;;;;;17.37;12.57;;;-1.20;99.90;;;;;;5015904;28;20211;-56
2022/12/11 00:50:22;;;;;;;20.80;12.83;;;-1.10;99.90;;;;;;5007339;28;20701;-57
2022/12/11 00:52:47;;;;;;;16.40;11.87;;;-1.10;99.90;;;;;;5007175;28;20204;-57
2022/12/11 00:55:12;;;;;;;16.03;13.17;;;-1.10;99.90;;;;;;5007315;28;20208;-55
2022/12/11 00:57:38;;;;;;;19.80;13.40;;;-1.10;99.90;;;;;;5007306;28;20315;-55
2022/12/11 01:00:07;;;;;;;17.17;12.23;;;-1.00;99.90;;;;;;5012712;28;20215;-57
2022/12/11 01:02:33;;;;;;;20.90;12.93;;;-1.00;99.90;;;;;;5015891;28;20208;-56
2022/12/11 01:04:59;;;;;;;18.43;12.50;;;-1.00;99.90;;;;;;5013094;28;20548;-56
2022/12/11 01:07:24;;;;;;;18.63;12.63;;;-1.00;99.90;;;;;;5016441;28;20357;-57
2022/12/11 01:12:34;;;;;;;17.60;12.03;;;-1.10;99.90;;;;;;5016609;28;20266;-56
2022/12/11 01:14:59;;;;;;;16.90;12.47;;;-1.10;99.90;;;;;;5016800;28;20211;-56
2022/12/11 01:17:25;;;;;;;17.87;12.43;;;-1.10;99.90;;;;;;5016799;28;20211;-57
2022/12/11 01:19:52;;;;;;;15.27;11.27;;;-1.10;99.90;;;;;;5013408;28;20245;-56
2022/12/11 01:22:18;;;;;;;15.77;12.00;;;-1.00;99.90;;;;;;5015627;28;20189;-57
2022/12/11 01:24:43;;;;;;;18.50;13.27;;;-1.00;99.90;;;;;;5023360;28;20199;-58
2022/12/11 01:27:09;;;;;;;17.33;12.77;;;-1.10;99.90;;;;;;5025191;28;20215;-56
2022/12/11 01:29:34;;;;;;;18.63;13.30;;;-1.10;99.90;;;;;;5021457;28;20576;-56
2022/12/11 01:32:00;;;;;;;16.97;12.17;;;-1.00;99.90;;;;;;5021092;28;20282;-59
2022/12/11 01:34:28;;;;;;;15.30;11.77;;;-1.10;99.90;;;;;;5023186;28;20733;-57
2022/12/11 01:36:54;;;;;;;21.63;12.70;;;-1.10;99.90;;;;;;5024553;28;20188;-57
2022/12/11 01:39:19;;;;;;;15.60;12.17;;;-1.10;99.90;;;;;;5023702;28;20613;-56
2022/12/11 01:41:44;;;;;;;17.40;11.63;;;-1.00;99.90;;;;;;5024234;28;20230;-57
2022/12/11 01:44:13;;;;;;;16.57;11.67;;;-0.90;99.90;;;;;;5021671;28;20875;-57
2022/12/11 01:46:39;;;;;;;16.13;12.20;;;-0.90;99.90;;;;;;5018070;28;20777;-56
2022/12/11 01:49:09;;;;;;;16.63;12.23;;;-0.90;99.90;;;;;;5020279;28;20300;-58
2022/12/11 01:51:54;;;;;;;19.53;14.23;;;-0.90;99.90;;;;;;5020464;28;20203;-55
2022/12/11 01:54:22;;;;;;;20.03;13.80;;;-1.00;99.90;;;;;;5021979;28;20212;-56
2022/12/11 01:56:50;;;;;;;18.50;12.70;;;-1.10;99.90;;;;;;5017520;28;20215;-58
2022/12/11 01:59:19;;;;;;;21.40;13.93;;;-1.10;99.90;;;;;;5026941;28;20207;-57
2022/12/11 02:02:06;;;;;;;16.50;11.93;;;-1.10;99.90;;;;;;5027187;28;20554;-56
2022/12/11 02:04:33;;;;;;;25.87;13.00;;;-1.10;99.90;;;;;;5025810;28;20209;-56
2022/12/11 02:06:59;;;;;;;20.00;14.27;;;-1.00;99.90;;;;;;5017307;28;20211;-56
2022/12/11 02:09:30;;;;;;;20.20;13.63;;;-1.00;99.90;;;;;;4970941;28;20196;-57
2022/12/11 02:12:25;;;;;;;20.03;12.80;;;-1.00;99.90;;;;;;5016651;28;20195;-56
2022/12/11 02:15:15;;;;;;;17.27;12.50;;;-1.10;99.90;;;;;;5019523;28;20690;-56
2022/12/11 02:17:50;;;;;;;21.43;13.50;;;-1.10;99.90;;;;;;5018915;28;20202;-57
2022/12/11 02:20:55;;;;;;;17.50;12.57;;;-1.20;99.90;;;;;;5016974;28;20275;-56
2022/12/11 02:23:51;;;;;;;21.67;14.57;;;-1.00;99.90;;;;;;5017466;28;20297;-56
2022/12/11 02:26:35;;;;;;;22.57;14.00;;;-1.00;99.90;;;;;;5014052;28;20215;-56
2022/12/11 02:29:05;;;;;;;17.47;12.70;;;-1.10;99.90;;;;;;5008581;28;20675;-57
2022/12/11 02:31:56;;;;;;;17.90;13.70;;;-1.00;99.90;;;;;;5009266;28;20638;-57
2022/12/11 02:34:36;;;;;;;19.13;14.17;;;-1.00;99.90;;;;;;5010215;28;20687;-58
2022/12/11 02:37:06;;;;;;;19.93;13.90;;;-1.00;99.90;;;;;;5009623;28;20300;-56
2022/12/11 02:39:34;;;;;;;20.87;13.50;;;-1.00;99.90;;;;;;5008689;28;20235;-56
2022/12/11 02:42:02;;;;;;;17.60;13.60;;;-0.90;99.90;;;;;;5008569;28;20266;-55
2022/12/11 02:44:32;;;;;;;22.37;14.87;;;-0.90;99.90;;;;;;5009107;28;20534;-56
2022/12/11 02:46:58;;;;;;;19.47;14.13;;;-1.00;99.90;;;;;;5008003;28;20350;-56
2022/12/11 02:49:25;;;;;;;20.37;12.17;;;-1.00;99.90;;;;;;5009518;28;20203;-55
2022/12/11 02:51:53;;;;;;;15.47;12.43;;;-1.00;99.90;;;;;;5009067;28;20235;-56
2022/12/11 02:54:24;;;;;;;23.10;13.63;;;-0.90;99.90;;;;;;5008754;28;20213;-55
2022/12/11 02:56:57;;;;;;;20.10;14.43;;;-0.80;99.90;;;;;;5006777;28;20718;-56
2022/12/11 02:59:28;;;;;;;19.23;13.13;;;-0.80;99.90;;;;;;5007958;28;20578;-56
2022/12/11 03:01:54;;;;;;;24.57;14.80;;;-0.80;99.90;;;;;;5008055;28;20194;-56
2022/12/11 03:04:23;;;;;;;20.53;13.03;;;-0.90;99.90;;;;;;5007979;28;20198;-57
2022/12/11 03:06:53;;;;;;;23.17;14.53;;;-0.90;99.90;;;;;;5012819;28;20208;-57
2022/12/11 03:09:19;;;;;;;19.47;13.97;;;-0.90;99.90;;;;;;5009202;28;20658;-56
2022/12/11 03:11:45;;;;;;;20.40;13.70;;;-0.90;99.90;;;;;;5008645;28;20250;-56
2022/12/11 03:14:11;;;;;;;20.23;13.77;;;-0.90;99.90;;;;;;5008765;28;20698;-56
2022/12/11 03:16:41;;;;;;;21.30;14.60;;;-1.00;99.90;;;;;;5006295;28;20246;-56
2022/12/11 03:19:21;;;;;;;17.97;12.87;;;-1.00;99.90;;;;;;5007530;28;20202;-57
2022/12/11 03:22:10;;;;;;;21.03;14.23;;;-1.00;99.90;;;;;;5007776;28;20204;-57
2022/12/11 03:24:43;;;;;;;15.87;12.23;;;-1.00;99.90;;;;;;5020632;28;20265;-57
2022/12/11 03:27:26;;;;;;;18.37;13.60;;;-1.00;99.90;;;;;;5013107;28;20219;-57
2022/12/11 03:29:58;;;;;;;17.00;12.63;;;-1.00;99.90;;;;;;5008572;28;20612;-57
2022/12/11 03:32:30;;;;;;;19.47;13.53;;;-1.00;99.90;;;;;;5014466;28;20278;-57
2022/12/11 03:35:05;;;;;;;16.90;13.90;;;-1.10;99.90;;;;;;5009882;28;20195;-55
2022/12/11 03:37:35;;;;;;;20.43;14.97;;;-1.10;99.90;;;;;;5007244;28;20281;-57
2022/12/11 03:40:05;;;;;;;22.77;14.23;;;-1.10;99.90;;;;;;5009469;28;20214;-56
2022/12/11 03:42:32;;;;;;;20.07;14.80;;;-1.10;99.90;;;;;;5005937;28;20239;-57
2022/12/11 03:44:59;;;;;;;20.17;13.60;;;-1.10;99.90;;;;;;5015233;28;20216;-56
2022/12/11 03:47:27;;;;;;;18.80;13.67;;;-1.10;99.90;;;;;;5011255;28;20224;-57
2022/12/11 03:49:53;;;;;;;19.73;14.40;;;-1.10;99.90;;;;;;5018185;28;20200;-55
2022/12/11 03:52:19;;;;;;;17.70;12.70;;;-1.10;99.90;;;;;;5018106;28;20620;-56
2022/12/11 03:54:48;;;;;;;24.53;14.83;;;-1.10;99.90;;;;;;5018008;28;20280;-56
2022/12/11 03:57:17;;;;;;;18.73;14.30;;;-1.10;99.90;;;;;;5019739;28;20406;-55
2022/12/11 03:59:43;;;;;;;20.97;14.77;;;-1.10;99.90;;;;;;5025384;28;20188;-57
2022/12/11 04:02:09;;;;;;;20.30;14.03;;;-1.10;99.90;;;;;;5025302;28;20192;-57
2022/12/11 04:04:35;;;;;;;19.23;13.47;;;-1.10;99.90;;;;;;5023862;28;20403;-58
2022/12/11 04:07:01;;;;;;;15.57;12.63;;;-1.10;99.90;;;;;;5007148;28;20580;-57
2022/12/11 04:09:26;;;;;;;21.37;14.03;;;-1.10;99.90;;;;;;5007102;28;20212;-58
2022/12/11 04:11:52;;;;;;;22.13;14.13;;;-1.10;99.90;;;;;;5015415;28;20448;-57
2022/12/11 04:17:01;;;;;;;19.17;13.83;;;-1.00;99.90;;;;;;5004785;28;20578;-57
2022/12/11 04:24:57;;;;;;;23.03;13.33;;;-0.90;99.90;;;;;;5006030;28;20220;-55
2022/12/11 04:30:09;;;;;;;20.53;13.37;;;-1.00;99.90;;;;;;5005393;28;20261;-56
2022/12/11 04:32:35;;;;;;;19.57;13.63;;;-1.10;99.90;;;;;;5015777;28;20211;-56
2022/12/11 04:35:01;;;;;;;22.63;13.33;;;-1.10;99.90;;;;;;5006977;28;20204;-57
2022/12/11 04:37:27;;;;;;;19.43;13.80;;;-1.10;99.90;;;;;;5007996;28;20655;-57
2022/12/11 04:39:52;;;;;;;21.63;13.33;;;-1.10;99.90;;;;;;5007240;28;20207;-57
2022/12/11 04:42:18;;;;;;;20.27;15.10;;;-1.10;99.90;;;;;;5006806;28;20212;-57
2022/12/11 04:44:44;;;;;;;19.87;13.67;;;-1.10;99.90;;;;;;5006771;28;20729;-57
2022/12/11 04:47:09;;;;;;;22.10;13.47;;;-1.10;99.90;;;;;;5016981;28;20316;-57
2022/12/11 04:49:35;;;;;;;21.57;14.80;;;-1.10;99.90;;;;;;5017109;28;20266;-57
2022/12/11 04:52:00;;;;;;;22.07;13.77;;;-1.20;99.90;;;;;;5016955;28;20287;-57
2022/12/11 04:54:28;;;;;;;19.37;14.00;;;-1.20;99.90;;;;;;5016954;28;20700;-57
2022/12/11 04:56:54;;;;;;;19.33;14.87;;;-1.20;99.90;;;;;;5014989;28;20224;-57
2022/12/11 04:59:19;;;;;;;24.00;14.80;;;-1.30;99.90;;;;;;5016636;28;20222;-57
2022/12/11 05:01:44;;;;;;;21.87;14.83;;;-1.30;99.90;;;;;;5016689;28;21008;-56
2022/12/11 05:04:10;;;;;;;21.03;13.97;;;-1.30;99.90;;;;;;5019579;28;20210;-57
2022/12/11 05:06:35;;;;;;;20.07;14.87;;;-1.30;99.90;;;;;;5013661;28;20591;-57
2022/12/11 05:09:01;;;;;;;17.80;13.43;;;-1.30;99.90;;;;;;5016481;28;20265;-57
2022/12/11 05:11:27;;;;;;;23.57;14.10;;;-1.30;99.90;;;;;;5013308;28;20203;-57
2022/12/11 05:13:52;;;;;;;20.97;14.27;;;-1.30;99.90;;;;;;5016717;28;20195;-57
2022/12/11 05:16:18;;;;;;;24.93;14.13;;;-1.30;99.90;;;;;;5017308;28;20275;-58
2022/12/11 05:18:43;;;;;;;24.37;15.70;;;-1.30;99.90;;;;;;5014105;28;20214;-58
2022/12/11 05:21:11;;;;;;;20.70;14.33;;;-1.30;99.90;;;;;;5016334;28;20212;-57
2022/12/11 05:23:37;;;;;;;22.33;14.13;;;-1.40;99.90;;;;;;5016181;28;20196;-57
2022/12/11 05:26:11;;;;;;;22.13;13.37;;;-1.40;99.90;;;;;;5016136;28;20227;-60
2022/12/11 05:28:38;;;;;;;19.03;13.37;;;-1.40;99.90;;;;;;5016421;28;20203;-57
2022/12/11 05:31:13;;;;;;;19.93;13.77;;;-1.30;99.90;;;;;;5015302;28;20196;-58
2022/12/11 05:33:38;;;;;;;20.60;13.70;;;-1.30;99.90;;;;;;5015593;28;20201;-57
2022/12/11 05:36:05;;;;;;;21.23;14.53;;;-1.30;99.90;;;;;;5017756;28;20209;-57
2022/12/11 05:38:30;;;;;;;18.90;13.20;;;-1.30;99.90;;;;;;5014725;28;20199;-57
2022/12/11 05:41:05;;;;;;;24.50;14.30;;;-1.30;99.90;;;;;;5016445;28;20432;-57
2022/12/11 05:43:32;;;;;;;23.93;14.27;;;-1.30;99.90;;;;;;5016567;28;20291;-57
2022/12/11 05:46:07;;;;;;;20.03;14.00;;;-1.30;99.90;;;;;;5016279;28;20224;-56
2022/12/11 05:48:33;;;;;;;23.43;14.60;;;-1.30;99.90;;;;;;5018423;28;20200;-56
2022/12/11 05:51:00;;;;;;;17.73;12.77;;;-1.30;99.90;;;;;;5012149;28;20677;-56
2022/12/11 05:53:26;;;;;;;21.93;13.30;;;-1.30;99.90;;;;;;5015961;28;20731;-56
2022/12/11 05:55:51;;;;;;;20.13;13.47;;;-1.30;99.90;;;;;;5016061;28;20215;-56
2022/12/11 05:58:17;;;;;;;22.10;14.77;;;-1.30;99.90;;;;;;5016414;28;20226;-56
2022/12/11 06:00:43;;;;;;;22.27;14.57;;;-1.30;99.90;;;;;;5014394;28;20284;-56
2022/12/11 06:03:08;;;;;;;17.47;12.70;;;-1.20;99.90;;;;;;5016162;28;20261;-56
2022/12/11 06:05:38;;;;;;;23.03;13.07;;;-1.20;99.90;;;;;;5015978;28;20219;-56
2022/12/11 06:08:04;;;;;;;19.37;13.20;;;-1.20;99.90;;;;;;5018854;28;20566;-56
2022/12/11 06:10:29;;;;;;;20.90;13.63;;;-1.10;99.90;;;;;;5013090;28;20212;-57
2022/12/11 06:12:55;;;;;;;21.13;12.47;;;-1.10;99.90;;;;;;5013973;28;20253;-57
2022/12/11 06:15:21;;;;;;;19.70;13.30;;;-1.20;99.90;;;;;;5015633;28;20743;-56
2022/12/11 06:17:46;;;;;;;19.13;11.87;;;-1.30;99.90;;;;;;5019454;28;20198;-56
2022/12/11 06:20:11;;;;;;;18.10;11.87;;;-1.30;99.90;;;;;;5012770;28;20280;-56
2022/12/11 06:22:37;;;;;;;14.97;11.97;;;-1.30;99.90;;;;;;5016551;28;20212;-56
2022/12/11 06:25:03;;;;;;;14.87;11.13;;;-1.20;99.90;;;;;;5015140;28;20238;-56
2022/12/11 06:27:28;;;;;;;14.27;10.07;;;-1.20;99.90;;;;;;5013857;28;20216;-56
2022/12/11 06:29:54;;;;;;;13.93;10.40;;;-1.30;99.90;;;;;;5016066;28;20208;-56
2022/12/11 06:32:20;;;;;;;12.77;9.43;;;-1.30;99.90;;;;;;5016377;28;20197;-56
2022/12/11 06:34:46;;;;;;;15.00;10.77;;;-1.40;99.90;;;;;;5019497;28;20195;-56
2022/12/11 06:37:12;;;;;;;12.67;9.47;;;-1.40;99.90;;;;;;5019334;28;20346;-56
2022/12/11 06:39:37;;;;;;;15.73;10.13;;;-1.40;99.90;;;;;;5017765;28;20199;-56
2022/12/11 06:42:03;;;;;;;16.93;10.83;;;-1.50;99.90;;;;;;5019501;28;20196;-56
2022/12/11 06:44:28;;;;;;;14.83;9.83;;;-1.40;99.90;;;;;;5019451;28;20245;-56
2022/12/11 06:46:54;;;;;;;14.47;10.70;;;-1.40;99.90;;;;;;5019388;28;20303;-56
2022/12/11 06:49:19;;;;;;;12.17;9.10;;;-1.40;99.90;;;;;;5019241;28;20191;-55
2022/12/11 06:51:45;;;;;;;11.13;8.23;;;-1.40;99.90;;;;;;5017025;28;20623;-56
2022/12/11 06:54:10;;;;;;;13.10;8.80;;;-1.40;99.90;;;;;;5018837;28;20197;-56
2022/12/11 06:56:35;;;;;;;13.83;9.00;;;-1.40;99.90;;;;;;5018888;28;20228;-56
2022/12/11 06:59:01;;;;;;;12.87;9.70;;;-1.40;99.90;;;;;;5019200;28;20195;-57
2022/12/11 07:01:27;;;;;;;12.23;9.90;;;-1.40;99.90;;;;;;5018790;28;20594;-56
2022/12/11 07:03:54;;;;;;;12.87;8.70;;;-1.30;99.90;;;;;;5019008;28;20207;-55
2022/12/11 07:06:20;;;;;;;12.00;9.37;;;-1.40;99.90;;;;;;5016966;28;20576;-56
2022/12/11 07:08:45;;;;;;;11.50;8.57;;;-1.40;99.90;;;;;;5018466;28;20254;-55
2022/12/11 07:11:13;;;;;;;13.00;8.40;;;-1.40;99.90;;;;;;5021776;28;20195;-55
2022/12/11 07:13:40;;;;;;;14.77;9.53;;;-1.40;99.90;;;;;;5013448;28;20204;-55
2022/12/11 07:16:09;;;;;;;15.33;9.53;;;-1.40;99.90;;;;;;5016713;28;20206;-55
2022/12/11 07:18:36;;;;;;;14.07;8.80;;;-1.50;99.90;;;;;;5019457;28;20688;-55
2022/12/11 07:21:02;;;;;;;13.73;9.13;;;-1.60;99.90;;;;;;5019206;28;20299;-55
2022/12/11 07:23:28;;;;;;;10.83;8.07;;;-1.60;99.90;;;;;;5016892;28;20221;-56
2022/12/11 07:25:54;;;;;;;11.10;8.43;;;-1.70;99.90;;;;;;5018540;28;20585;-56
2022/12/11 07:28:20;;;;;;;13.30;8.67;;;-1.60;99.90;;;;;;5022601;28;20206;-55
2022/12/11 07:30:45;;;;;;;10.97;7.83;;;-1.60;99.90;;;;;;5011898;28;20201;-55
2022/12/11 07:33:11;;;;;;;10.37;7.80;;;-1.50;99.90;;;;;;5013547;28;20866;-55
2022/12/11 07:35:36;;;;;;;13.83;7.90;;;-1.60;99.90;;;;;;5005711;28;20219;-55
2022/12/11 07:38:02;;;;;;;14.70;10.03;;;-1.60;99.90;;;;;;5008996;28;20660;-55
2022/12/11 07:40:28;;;;;;;15.03;9.03;;;-1.60;99.90;;;;;;5010408;28;20205;-55
2022/12/11 07:42:53;;;;;;;13.40;8.63;;;-1.60;99.90;;;;;;5008243;28;20242;-56
2022/12/11 07:45:18;;;;;;;11.37;8.33;;;-1.60;99.90;;;;;;5004672;28;20281;-56
2022/12/11 07:47:44;;;;;;;10.13;8.37;;;-1.60;99.90;;;;;;5007763;28;20688;-55
2022/12/11 07:50:09;;;;;;;15.57;9.80;;;-1.60;99.90;;;;;;5008137;28;20238;-56
2022/12/11 07:52:35;;;;;;;12.20;8.67;;;-1.70;99.90;;;;;;5007698;28;20659;-56
2022/12/11 07:55:00;;;;;;;11.23;8.20;;;-1.60;99.90;;;;;;5007783;28;20281;-56
2022/12/11 07:57:26;;;;;;;11.40;8.97;;;-1.60;99.90;;;;;;5015325;28;20235;-56
2022/12/11 07:59:52;;;;;;;13.67;9.10;;;-1.70;99.90;;;;;;5008761;28;20205;-56
2022/12/11 08:02:17;;;;;;;11.07;8.53;;;-1.60;99.90;;;;;;5007643;28;20545;-56
2022/12/11 08:04:43;;;;;;;13.87;9.57;;;-1.50;99.90;;;;;;5008168;28;20254;-57
2022/12/11 08:07:08;;;;;;;11.80;9.13;;;-1.40;99.90;;;;;;5011554;28;20319;-56
2022/12/11 08:09:35;;;;;;;14.47;9.20;;;-1.40;99.90;;;;;;5017631;28;20224;-56
2022/12/11 08:12:00;;;;;;;14.13;9.50;;;-1.30;99.90;;;;;;5014325;28;20212;-56
2022/12/11 08:14:26;;;;;;;12.90;9.20;;;-1.30;99.90;;;;;;5017168;28;20197;-56
2022/12/11 08:16:51;;;;;;;14.73;9.00;;;-1.30;99.90;;;;;;5017792;28;20197;-56
2022/12/11 08:19:17;;;;;;;11.40;9.27;;;-1.30;99.90;;;;;;5017125;28;20533;-55
2022/12/11 08:21:42;;;;;;;12.67;10.43;;;-1.30;99.90;;;;;;5020967;28;20195;-56
2022/12/11 08:24:08;;;;;;;10.57;9.00;;;-1.20;99.90;;;;;;5013810;28;20192;-56
2022/12/11 08:26:34;;;;;;;12.10;9.37;;;-1.20;99.90;;;;;;5015905;28;20277;-55
2022/12/11 08:29:01;;;;;;;14.30;8.63;;;-1.10;99.90;;;;;;5017372;28;20708;-55
2022/12/11 08:31:28;;;;;;;12.13;8.30;;;-1.10;99.90;;;;;;5016930;28;20201;-57
2022/12/11 08:33:54;;;;;;;13.77;8.80;;;-1.10;99.90;;;;;;5017232;28;20198;-55
2022/12/11 08:36:21;;;;;;;11.00;8.00;;;-1.00;99.90;;;;;;5017144;28;20962;-56
2022/12/11 08:38:47;;;;;;;11.37;8.23;;;-1.00;99.90;;;;;;5015580;28;20196;-56
2022/12/11 08:41:16;;;;;;;11.17;8.87;;;-0.90;99.90;;;;;;5016501;28;20278;-57
2022/12/11 08:43:42;;;;;;;10.00;8.33;;;-0.90;99.90;;;;;;5014937;28;20800;-57
2022/12/11 08:46:09;;;;;;;10.90;8.70;;;-0.90;99.90;;;;;;5016892;28;20228;-55
2022/12/11 08:48:36;;;;;;;12.33;8.67;;;-0.90;99.90;;;;;;5016237;28;20204;-56
2022/12/11 08:51:03;;;;;;;9.93;8.03;;;-0.90;99.90;;;;;;5020458;28;20289;-56
2022/12/11 08:53:29;;;;;;;13.77;8.33;;;-0.90;99.90;;;;;;5013247;28;20345;-56
2022/12/11 08:56:07;;;;;;;12.60;9.07;;;-0.80;99.90;;;;;;5016684;28;20461;-55
2022/12/11 08:58:32;;;;;;;10.90;8.63;;;-0.80;99.90;;;;;;5014877;28;20613;-56
2022/12/11 09:00:58;;;;;;;14.13;8.30;;;-0.80;99.90;;;;;;5016911;28;20458;-56
2022/12/11 09:03:24;;;;;;;12.23;8.50;;;-0.80;99.90;;;;;;5016568;28;20271;-56
2022/12/11 09:05:50;;;;;;;11.60;8.70;;;-0.80;99.90;;;;;;5015541;28;20219;-56
2022/12/11 09:08:15;;;;;;;12.53;8.73;;;-0.80;99.90;;;;;;5016396;28;20199;-56
2022/12/11 09:10:41;;;;;;;13.87;9.10;;;-0.70;99.90;;;;;;5015270;28;20294;-56
2022/12/11 09:13:06;;;;;;;10.30;8.20;;;-0.70;99.90;;;;;;5016631;28;20703;-56
2022/12/11 09:15:32;;;;;;;77.67;70.93;;;-0.70;99.90;;;;;;5016397;28;20204;-56
2022/12/11 09:17:57;;;;;;;22.33;20.20;;;-0.80;99.90;;;;;;5016655;28;20566;-57
2022/12/11 09:20:23;;;;;;;12.77;9.77;;;-0.80;99.90;;;;;;5016401;28;20315;-57
2022/12/11 09:22:48;;;;;;;13.03;8.70;;;-0.90;99.90;;;;;;5014732;28;20203;-56
2022/12/11 09:25:14;;;;;;;13.20;8.87;;;-0.90;99.90;;;;;;5012209;28;20703;-55
2022/12/11 09:27:40;;;;;;;13.57;8.90;;;-1.00;99.90;;;;;;5016369;28;20912;-56
2022/12/11 09:30:06;;;;;;;12.47;8.00;;;-1.00;99.90;;;;;;5016641;28;20550;-55
2022/12/11 09:32:31;;;;;;;11.47;8.43;;;-1.00;99.90;;;;;;5015756;28;20244;-56
2022/12/11 09:34:57;;;;;;;10.00;8.10;;;-1.00;99.90;;;;;;5018635;28;20229;-58
2022/12/11 09:37:22;;;;;;;11.73;8.47;;;-1.00;99.90;;;;;;5012344;28;20217;-59
2022/12/11 09:39:48;;;;;;;10.77;7.43;;;-1.00;99.90;;;;;;5014508;28;20942;-58
2022/12/11 09:42:24;;;;;;;13.87;9.00;;;-1.00;99.90;;;;;;5015566;28;20482;-59
2022/12/11 09:44:53;;;;;;;13.50;8.90;;;-1.00;99.90;;;;;;5015973;28;20674;-56
2022/12/11 09:47:39;;;;;;;11.60;8.07;;;-1.00;99.90;;;;;;5015280;28;20216;-57
2022/12/11 09:50:08;;;;;;;13.07;8.43;;;-0.90;99.90;;;;;;5016014;28;20287;-59
2022/12/11 09:52:39;;;;;;;13.27;9.07;;;-0.90;99.90;;;;;;5014025;28;20204;-59
2022/12/11 09:55:18;;;;;;;11.53;8.03;;;-0.90;99.90;;;;;;5013568;28;20917;-60
2022/12/11 09:58:27;;;;;;;11.73;8.87;;;-0.90;99.90;;;;;;5014581;28;20231;-59
2022/12/11 10:01:19;;;;;;;13.63;8.80;;;-0.80;99.90;;;;;;5016064;28;20306;-60
2022/12/11 10:04:04;;;;;;;13.60;9.70;;;-0.90;99.90;;;;;;5015836;28;20917;-60
2022/12/11 10:06:35;;;;;;;10.03;8.53;;;-0.80;99.90;;;;;;5013823;28;20218;-59
2022/12/11 10:09:14;;;;;;;13.93;9.47;;;-0.80;99.90;;;;;;5019173;28;20215;-61
2022/12/11 10:11:59;;;;;;;12.83;8.53;;;-0.90;99.90;;;;;;5015790;28;20296;-60
2022/12/11 10:14:54;;;;;;;14.77;9.27;;;-1.00;99.90;;;;;;5007604;28;20212;-61
2022/12/11 10:17:26;;;;;;;12.87;9.07;;;-0.90;99.90;;;;;;5007281;28;20197;-61
2022/12/11 10:19:53;;;;;;;14.27;9.83;;;-1.00;99.90;;;;;;5009978;28;20219;-60
2022/12/11 10:22:23;;;;;;;13.87;8.93;;;-0.90;99.90;;;;;;5006622;28;20215;-59
2022/12/11 10:24:55;;;;;;;12.47;9.00;;;-1.00;99.90;;;;;;5009085;28;20695;-60
2022/12/11 10:27:25;;;;;;;11.07;8.87;;;-0.90;99.90;;;;;;5009285;28;20242;-60
2022/12/11 10:30:01;;;;;;;11.40;8.10;;;-0.90;99.90;;;;;;5011962;28;20200;-56
2022/12/11 10:32:42;;;;;;;14.53;8.23;;;-0.80;99.90;;;;;;5006998;28;20246;-56
2022/12/11 10:35:40;;;;;;;16.73;10.57;;;-0.70;99.90;;;;;;5007224;28;20208;-57
2022/12/11 10:38:32;;;;;;;13.37;8.50;;;-0.70;99.90;;;;;;5014055;28;20203;-57
2022/12/11 10:41:01;;;;;;;14.47;8.93;;;-0.80;99.90;;;;;;5008529;28;20717;-56
2022/12/11 10:43:41;;;;;;;13.83;9.00;;;-0.90;99.90;;;;;;5010897;28;20682;-56
2022/12/11 10:46:19;;;;;;;10.30;7.70;;;-0.90;99.90;;;;;;5003357;28;20697;-56
2022/12/11 10:48:52;;;;;;;12.60;9.13;;;-0.90;99.90;;;;;;5009588;28;20842;-56
2022/12/11 10:51:20;;;;;;;8.70;7.70;;;-0.90;99.90;;;;;;5009362;28;20203;-57
2022/12/11 10:53:50;;;;;;;13.67;9.30;;;-0.90;99.90;;;;;;5008704;28;20285;-56
2022/12/11 10:56:25;;;;;;;16.07;8.80;;;-0.90;99.90;;;;;;5008429;28;20278;-55
2022/12/11 10:58:51;;;;;;;9.03;7.97;;;-0.70;99.90;;;;;;5016421;28;20208;-69
2022/12/11 11:01:21;;;;;;;15.50;9.60;;;-0.80;99.90;;;;;;5008567;28;20200;-60
2022/12/11 11:03:57;;;;;;;11.00;7.93;;;-0.80;99.90;;;;;;5009308;28;20212;-58
2022/12/11 11:06:23;;;;;;;10.87;7.90;;;-0.70;99.90;;;;;;5018748;28;20250;-58
2022/12/11 11:08:52;;;;;;;12.33;8.87;;;-0.70;99.90;;;;;;5008003;28;20192;-58
2022/12/11 11:11:25;;;;;;;11.57;8.47;;;-0.70;99.90;;;;;;5009027;28;20569;-61
2022/12/11 11:13:52;;;;;;;12.07;8.83;;;-0.70;99.90;;;;;;5018878;28;20189;-59
2022/12/11 11:16:20;;;;;;;14.77;8.47;;;-0.70;99.90;;;;;;5016441;28;20202;-60
2022/12/11 11:18:53;;;;;;;11.40;9.23;;;-0.60;99.90;;;;;;5018622;28;20197;-59
2022/12/11 11:21:21;;;;;;;9.60;7.43;;;-0.60;99.90;;;;;;5015578;28;20205;-60
2022/12/11 11:23:47;;;;;;;9.50;8.03;;;-0.60;99.90;;;;;;5007108;28;20212;-59
2022/12/11 11:26:13;;;;;;;12.17;8.30;;;-0.60;99.90;;;;;;5011776;28;20551;-60
2022/12/11 11:28:51;;;;;;;11.07;8.90;;;-0.60;99.90;;;;;;5016012;28;20742;-61
2022/12/11 11:31:18;;;;;;;12.10;8.43;;;-0.60;99.90;;;;;;5020221;28;20281;-59
2022/12/11 11:33:52;;;;;;;11.17;8.63;;;-0.60;99.90;;;;;;5000653;28;20673;-59
2022/12/11 11:36:24;;;;;;;13.73;9.57;;;-0.60;99.90;;;;;;5020377;28;20291;-59
2022/12/11 11:39:03;;;;;;;14.47;9.27;;;-0.60;99.90;;;;;;5020072;28;20226;-59
2022/12/11 11:41:39;;;;;;;14.60;9.30;;;-0.50;99.90;;;;;;5010848;28;20209;-59
2022/12/11 11:44:09;;;;;;;13.77;8.57;;;-0.50;99.90;;;;;;5011305;28;20196;-60
2022/12/11 11:46:43;;;;;;;14.23;8.77;;;-0.40;99.90;;;;;;5008631;28;20211;-59
2022/12/11 11:49:11;;;;;;;12.70;9.40;;;-0.40;99.90;;;;;;5009551;28;20199;-60
2022/12/11 11:51:50;;;;;;;11.63;9.47;;;-0.50;99.90;;;;;;5009140;28;20353;-60
2022/12/11 11:54:35;;;;;;;12.80;9.87;;;-0.50;99.90;;;;;;5006973;28;20220;-60
2022/12/11 11:57:09;;;;;;;11.63;8.80;;;-0.50;99.90;;;;;;5011948;28;20240;-60
2022/12/11 11:59:41;;;;;;;14.27;9.43;;;-0.50;99.90;;;;;;5009621;28;20207;-59
2022/12/11 12:02:15;;;;;;;11.53;8.80;;;-0.50;99.90;;;;;;5006616;28;20208;-60
2022/12/11 12:04:41;;;;;;;13.23;10.03;;;-0.50;99.90;;;;;;5008256;28;20725;-60
2022/12/11 12:07:36;;;;;;;12.97;9.03;;;-0.50;99.90;;;;;;5007781;28;20785;-59
2022/12/11 12:10:19;;;;;;;11.60;8.77;;;-0.50;99.90;;;;;;5007252;28;20334;-59
2022/12/11 12:12:52;;;;;;;14.93;9.90;;;-0.50;99.90;;;;;;5009994;28;20227;-59
2022/12/11 12:15:24;;;;;;;11.90;9.37;;;-0.50;99.90;;;;;;5017320;28;20670;-60
2022/12/11 12:17:52;;;;;;;12.17;9.27;;;-0.50;99.90;;;;;;5014423;28;20208;-59
2022/12/11 12:20:28;;;;;;;14.60;10.60;;;-0.50;99.90;;;;;;5016917;28;20204;-59
2022/12/11 12:23:20;;;;;;;15.83;10.03;;;-0.50;99.90;;;;;;5027880;28;20196;-65
2022/12/11 12:25:56;;;;;;;13.57;9.83;;;-0.50;99.90;;;;;;5010894;28;20967;-63
2022/12/11 12:28:41;;;;;;;10.47;9.30;;;-0.60;99.90;;;;;;5016793;28;20204;-62
2022/12/11 12:31:25;;;;;;;13.70;9.57;;;-0.70;99.90;;;;;;5016939;28;20235;-60
2022/12/11 12:34:18;;;;;;;15.23;9.97;;;-0.70;99.90;;;;;;5009908;28;20201;-60
2022/12/11 12:36:55;;;;;;;13.33;9.93;;;-0.70;99.90;;;;;;5017299;28;20195;-60
2022/12/11 12:39:45;;;;;;;12.83;8.83;;;-0.70;99.90;;;;;;5016835;28;20211;-60
2022/12/11 12:42:43;;;;;;;15.90;9.87;;;-0.80;99.90;;;;;;5015628;28;20214;-63
2022/12/11 12:45:11;;;;;;;14.57;9.83;;;-0.60;99.90;;;;;;5015153;28;20682;-59
2022/12/11 12:47:39;;;;;;;15.67;9.90;;;-0.60;99.90;;;;;;5017382;28;20216;-67
2022/12/11 12:50:11;;;;;;;17.80;10.47;;;-0.50;99.90;;;;;;5017570;28;20206;-60
2022/12/11 12:52:38;;;;;;;15.20;9.17;;;-0.50;99.90;;;;;;5016635;28;20840;-61
2022/12/11 12:55:12;;;;;;;15.50;9.53;;;-0.50;99.90;;;;;;5014812;28;20204;-60
2022/12/11 12:57:45;;;;;;;13.40;9.50;;;-0.50;99.90;;;;;;5016731;28;20232;-61